sensor_id;sensor_type;location;lat;lon;timestamp;temperature;humidity
37002;DHT22;22913;51.910;8.374;2023-03-19T00:00:09;10.90;99.90
37002;DHT22;22913;51.910;8.374;2023-03-19T00:02:55;10.90;99.90
37002;DHT22;22913;51.910;8.374;2023-03-19T00:05:49;10.90;99.90
37002;DHT22;22913;51.910;8.374;2023-03-19T00:08:37;10.90;99.90
37002;DHT22;22913;51.910;8.374;2023-03-19T00:11:23;10.90;99.90
37002;DHT22;22913;51.910;8.374;2023-03-19T00:14:09;11.00;99.90
37002;DHT22;22913;51.910;8.374;2023-03-19T00:16:55;10.90;99.90
37002;DHT22;22913;51.910;8.374;2023-03-19T00:19:41;10.90;99.90
37002;DHT22;22913;51.910;8.374;2023-03-19T00:22:27;10.80;99.90
37002;DHT22;22913;51.910;8.374;2023-03-19T00:25:14;10.80;99.90
37002;DHT22;22913;51.910;8.374;2023-03-19T00:28:00;10.80;99.90
37002;DHT22;22913;51.910;8.374;2023-03-19T00:30:45;10.80;99.90
37002;DHT22;22913;51.910;8.374;2023-03-19T00:33:31;10.80;99.90
37002;DHT22;22913;51.910;8.374;2023-03-19T00:36:17;10.80;99.90
37002;DHT22;22913;51.910;8.374;2023-03-19T00:39:05;10.80;99.90
37002;DHT22;22913;51.910;8.374;2023-03-19T00:41:52;10.80;99.90
37002;DHT22;22913;51.910;8.374;2023-03-19T00:44:38;10.90;99.90
37002;DHT22;22913;51.910;8.374;2023-03-19T00:47:24;10.80;99.90
37002;DHT22;22913;51.910;8.374;2023-03-19T00:50:10;10.90;99.90
37002;DHT22;22913;51.910;8.374;2023-03-19T00:52:56;10.80;99.90
37002;DHT22;22913;51.910;8.374;2023-03-19T00:55:42;10.70;99.90
37002;DHT22;22913;51.910;8.374;2023-03-19T00:58:30;10.70;99.90
37002;DHT22;22913;51.910;8.374;2023-03-19T01:01:17;10.80;99.90
37002;DHT22;22913;51.910;8.374;2023-03-19T01:04:03;10.80;99.90
37002;DHT22;22913;51.910;8.374;2023-03-19T01:06:49;10.70;99.90
37002;DHT22;22913;51.910;8.374;2023-03-19T01:09:35;10.80;99.90
37002;DHT22;22913;51.910;8.374;2023-03-19T01:12:20;10.80;99.90
37002;DHT22;22913;51.910;8.374;2023-03-19T01:15:09;10.80;99.90
37002;DHT22;22913;51.910;8.374;2023-03-19T01:17:54;10.70;99.90
37002;DHT22;22913;51.910;8.374;2023-03-19T01:20:40;10.70;99.90
37002;DHT22;22913;51.910;8.374;2023-03-19T01:23:26;10.70;99.90
37002;DHT22;22913;51.910;8.374;2023-03-19T01:26:12;10.70;99.90
37002;DHT22;22913;51.910;8.374;2023-03-19T01:28:58;10.70;99.90
37002;DHT22;22913;51.910;8.374;2023-03-19T01:31:45;10.60;99.90
37002;DHT22;22913;51.910;8.374;2023-03-19T01:34:30;10.60;99.90
37002;DHT22;22913;51.910;8.374;2023-03-19T01:37:16;10.60;99.90
37002;DHT22;22913;51.910;8.374;2023-03-19T01:40:02;10.60;99.90
37002;DHT22;22913;51.910;8.374;2023-03-19T01:42:53;10.70;99.90
37002;DHT22;22913;51.910;8.374;2023-03-19T01:45:41;10.70;99.90
37002;DHT22;22913;51.910;8.374;2023-03-19T01:48:35;10.70;99.90
37002;DHT22;22913;51.910;8.374;2023-03-19T01:51:24;10.70;99.90
37002;DHT22;22913;51.910;8.374;2023-03-19T01:54:13;10.70;99.90
37002;DHT22;22913;51.910;8.374;2023-03-19T01:57:04;10.70;99.90
37002;DHT22;22913;51.910;8.374;2023-03-19T01:59:53;10.60;99.90
37002;DHT22;22913;51.910;8.374;2023-03-19T02:02:39;10.60;99.90
37002;DHT22;22913;51.910;8.374;2023-03-19T02:05:28;10.50;99.90
37002;DHT22;22913;51.910;8.374;2023-03-19T02:08:16;10.50;99.90
37002;DHT22;22913;51.910;8.374;2023-03-19T02:11:02;10.40;99.90
37002;DHT22;22913;51.910;8.374;2023-03-19T02:13:48;10.40;99.90
37002;DHT22;22913;51.910;8.374;2023-03-19T02:16:34;10.40;99.90
37002;DHT22;22913;51.910;8.374;2023-03-19T02:19:24;10.30;99.90
37002;DHT22;22913;51.910;8.374;2023-03-19T02:22:13;10.30;99.90
37002;DHT22;22913;51.910;8.374;2023-03-19T02:25:08;10.30;99.90
37002;DHT22;22913;51.910;8.374;2023-03-19T02:27:57;10.30;99.90
37002;DHT22;22913;51.910;8.374;2023-03-19T02:30:43;10.30;99.90
37002;DHT22;22913;51.910;8.374;2023-03-19T02:33:29;10.30;99.90
37002;DHT22;22913;51.910;8.374;2023-03-19T02:36:17;10.40;99.90
37002;DHT22;22913;51.910;8.374;2023-03-19T02:39:12;10.40;99.90
37002;DHT22;22913;51.910;8.374;2023-03-19T02:42:01;10.40;99.90
37002;DHT22;22913;51.910;8.374;2023-03-19T02:44:49;10.30;99.90
37002;DHT22;22913;51.910;8.374;2023-03-19T02:47:35;10.30;99.90
37002;DHT22;22913;51.910;8.374;2023-03-19T02:50:21;10.40;99.90
37002;DHT22;22913;51.910;8.374;2023-03-19T02:53:07;10.40;99.90
37002;DHT22;22913;51.910;8.374;2023-03-19T02:55:53;10.30;99.90
37002;DHT22;22913;51.910;8.374;2023-03-19T02:58:39;10.30;99.90
37002;DHT22;22913;51.910;8.374;2023-03-19T03:01:26;10.30;99.90
37002;DHT22;22913;51.910;8.374;2023-03-19T03:04:13;10.30;99.90
37002;DHT22;22913;51.910;8.374;2023-03-19T03:07:00;10.30;99.90
37002;DHT22;22913;51.910;8.374;2023-03-19T03:09:46;10.30;99.90
37002;DHT22;22913;51.910;8.374;2023-03-19T03:12:32;10.30;99.90
37002;DHT22;22913;51.910;8.374;2023-03-19T03:15:18;10.30;99.90
37002;DHT22;22913;51.910;8.374;2023-03-19T03:18:06;10.30;99.90
37002;DHT22;22913;51.910;8.374;2023-03-19T03:20:51;10.30;99.90
37002;DHT22;22913;51.910;8.374;2023-03-19T03:23:38;10.30;99.90
37002;DHT22;22913;51.910;8.374;2023-03-19T03:26:24;10.30;99.90
37002;DHT22;22913;51.910;8.374;2023-03-19T03:29:10;10.30;99.90
37002;DHT22;22913;51.910;8.374;2023-03-19T03:31:56;10.20;99.90
37002;DHT22;22913;51.910;8.374;2023-03-19T03:34:43;10.20;99.90
37002;DHT22;22913;51.910;8.374;2023-03-19T03:37:29;10.20;99.90
37002;DHT22;22913;51.910;8.374;2023-03-19T03:40:15;10.20;99.90
37002;DHT22;22913;51.910;8.374;2023-03-19T03:43:01;10.20;99.90
37002;DHT22;22913;51.910;8.374;2023-03-19T03:45:47;10.30;99.90
37002;DHT22;22913;51.910;8.374;2023-03-19T03:48:33;10.20;99.90
37002;DHT22;22913;51.910;8.374;2023-03-19T03:51:20;10.20;99.90
37002;DHT22;22913;51.910;8.374;2023-03-19T03:54:06;10.20;99.90
37002;DHT22;22913;51.910;8.374;2023-03-19T03:56:52;10.10;99.90
37002;DHT22;22913;51.910;8.374;2023-03-19T03:59:38;10.20;99.90
37002;DHT22;22913;51.910;8.374;2023-03-19T04:02:24;10.20;99.90
37002;DHT22;22913;51.910;8.374;2023-03-19T04:05:10;10.10;99.90
37002;DHT22;22913;51.910;8.374;2023-03-19T04:07:57;10.10;99.90
37002;DHT22;22913;51.910;8.374;2023-03-19T04:10:43;10.10;99.90
37002;DHT22;22913;51.910;8.374;2023-03-19T04:13:29;10.10;99.90
37002;DHT22;22913;51.910;8.374;2023-03-19T04:16:19;10.00;99.90
37002;DHT22;22913;51.910;8.374;2023-03-19T04:19:05;9.90;99.90
37002;DHT22;22913;51.910;8.374;2023-03-19T04:21:52;9.90;99.90
37002;DHT22;22913;51.910;8.374;2023-03-19T04:24:39;9.90;99.90
37002;DHT22;22913;51.910;8.374;2023-03-19T04:27:25;9.90;99.90
37002;DHT22;22913;51.910;8.374;2023-03-19T04:30:12;9.80;99.90
37002;DHT22;22913;51.910;8.374;2023-03-19T04:32:58;9.70;99.90
37002;DHT22;22913;51.910;8.374;2023-03-19T04:35:44;9.70;99.90
37002;DHT22;22913;51.910;8.374;2023-03-19T04:38:30;9.70;99.90
37002;DHT22;22913;51.910;8.374;2023-03-19T04:41:17;9.70;99.90
37002;DHT22;22913;51.910;8.374;2023-03-19T04:44:03;9.70;99.90
37002;DHT22;22913;51.910;8.374;2023-03-19T04:46:49;9.70;99.90
37002;DHT22;22913;51.910;8.374;2023-03-19T04:49:36;9.60;99.90
37002;DHT22;22913;51.910;8.374;2023-03-19T04:52:21;9.60;99.90
37002;DHT22;22913;51.910;8.374;2023-03-19T04:55:08;9.50;99.90
37002;DHT22;22913;51.910;8.374;2023-03-19T04:57:55;9.50;99.90
37002;DHT22;22913;51.910;8.374;2023-03-19T05:00:41;9.50;99.90
37002;DHT22;22913;51.910;8.374;2023-03-19T05:03:30;9.50;99.90
37002;DHT22;22913;51.910;8.374;2023-03-19T05:06:16;9.40;99.90
37002;DHT22;22913;51.910;8.374;2023-03-19T05:09:03;9.40;99.90
37002;DHT22;22913;51.910;8.374;2023-03-19T05:11:49;9.30;99.90
37002;DHT22;22913;51.910;8.374;2023-03-19T05:14:36;9.30;99.90
37002;DHT22;22913;51.910;8.374;2023-03-19T05:17:22;9.20;99.90
37002;DHT22;22913;51.910;8.374;2023-03-19T05:20:10;9.20;99.90
37002;DHT22;22913;51.910;8.374;2023-03-19T05:22:56;9.20;99.90
37002;DHT22;22913;51.910;8.374;2023-03-19T05:25:42;9.20;99.90
37002;DHT22;22913;51.910;8.374;2023-03-19T05:28:27;9.20;99.90
37002;DHT22;22913;51.910;8.374;2023-03-19T05:31:15;9.10;99.90
37002;DHT22;22913;51.910;8.374;2023-03-19T05:34:00;9.10;99.90
37002;DHT22;22913;51.910;8.374;2023-03-19T05:36:47;9.10;99.90
37002;DHT22;22913;51.910;8.374;2023-03-19T05:39:33;9.10;99.90
37002;DHT22;22913;51.910;8.374;2023-03-19T05:42:19;9.10;99.90
37002;DHT22;22913;51.910;8.374;2023-03-19T05:45:05;9.10;99.90
37002;DHT22;22913;51.910;8.374;2023-03-19T05:47:53;9.10;99.90
37002;DHT22;22913;51.910;8.374;2023-03-19T05:50:39;9.10;99.90
37002;DHT22;22913;51.910;8.374;2023-03-19T05:53:25;9.10;99.90
37002;DHT22;22913;51.910;8.374;2023-03-19T05:56:11;9.20;99.90
37002;DHT22;22913;51.910;8.374;2023-03-19T05:58:57;9.10;99.90
37002;DHT22;22913;51.910;8.374;2023-03-19T06:01:43;9.10;99.90
37002;DHT22;22913;51.910;8.374;2023-03-19T06:04:30;9.10;99.90
37002;DHT22;22913;51.910;8.374;2023-03-19T06:07:16;9.20;99.90
37002;DHT22;22913;51.910;8.374;2023-03-19T06:10:02;9.20;99.90
37002;DHT22;22913;51.910;8.374;2023-03-19T06:12:48;9.20;99.90
37002;DHT22;22913;51.910;8.374;2023-03-19T06:15:34;9.20;99.90
37002;DHT22;22913;51.910;8.374;2023-03-19T06:18:20;9.30;99.90
37002;DHT22;22913;51.910;8.374;2023-03-19T06:21:07;9.30;99.90
37002;DHT22;22913;51.910;8.374;2023-03-19T06:23:54;9.30;99.90
37002;DHT22;22913;51.910;8.374;2023-03-19T06:26:39;9.30;99.90
37002;DHT22;22913;51.910;8.374;2023-03-19T06:29:29;9.40;99.90
37002;DHT22;22913;51.910;8.374;2023-03-19T06:32:15;9.40;99.90
37002;DHT22;22913;51.910;8.374;2023-03-19T06:35:01;9.50;99.90
37002;DHT22;22913;51.910;8.374;2023-03-19T06:37:47;9.60;99.90
37002;DHT22;22913;51.910;8.374;2023-03-19T06:40:33;9.70;99.90
37002;DHT22;22913;51.910;8.374;2023-03-19T06:43:19;9.80;99.90
37002;DHT22;22913;51.910;8.374;2023-03-19T06:46:07;9.80;99.90
37002;DHT22;22913;51.910;8.374;2023-03-19T06:48:54;9.90;99.90
37002;DHT22;22913;51.910;8.374;2023-03-19T06:51:40;10.00;99.90
37002;DHT22;22913;51.910;8.374;2023-03-19T06:54:26;10.10;99.90
37002;DHT22;22913;51.910;8.374;2023-03-19T06:57:12;10.10;99.90
37002;DHT22;22913;51.910;8.374;2023-03-19T06:59:58;10.20;99.90
37002;DHT22;22913;51.910;8.374;2023-03-19T07:02:45;10.30;99.90
37002;DHT22;22913;51.910;8.374;2023-03-19T07:05:31;10.40;99.90
37002;DHT22;22913;51.910;8.374;2023-03-19T07:08:17;10.50;99.90
37002;DHT22;22913;51.910;8.374;2023-03-19T07:11:04;10.60;99.90
37002;DHT22;22913;51.910;8.374;2023-03-19T07:13:50;10.70;99.90
37002;DHT22;22913;51.910;8.374;2023-03-19T07:16:36;10.70;99.90
37002;DHT22;22913;51.910;8.374;2023-03-19T07:19:23;10.80;99.90
37002;DHT22;22913;51.910;8.374;2023-03-19T07:22:09;10.90;99.90
37002;DHT22;22913;51.910;8.374;2023-03-19T07:24:55;10.90;99.90
37002;DHT22;22913;51.910;8.374;2023-03-19T07:27:41;11.00;99.90
37002;DHT22;22913;51.910;8.374;2023-03-19T07:30:26;11.10;99.90
37002;DHT22;22913;51.910;8.374;2023-03-19T07:33:12;11.20;99.90
37002;DHT22;22913;51.910;8.374;2023-03-19T07:35:59;11.30;99.90
37002;DHT22;22913;51.910;8.374;2023-03-19T07:38:45;11.40;99.90
37002;DHT22;22913;51.910;8.374;2023-03-19T07:41:31;11.50;99.90
37002;DHT22;22913;51.910;8.374;2023-03-19T07:44:17;11.50;99.90
37002;DHT22;22913;51.910;8.374;2023-03-19T07:47:03;11.60;99.90
37002;DHT22;22913;51.910;8.374;2023-03-19T07:49:49;11.60;99.90
37002;DHT22;22913;51.910;8.374;2023-03-19T07:52:36;11.60;99.90
37002;DHT22;22913;51.910;8.374;2023-03-19T07:55:25;11.60;99.90
37002;DHT22;22913;51.910;8.374;2023-03-19T07:58:11;11.70;99.90
37002;DHT22;22913;51.910;8.374;2023-03-19T08:00:56;11.70;99.90
37002;DHT22;22913;51.910;8.374;2023-03-19T08:03:42;11.80;99.90
37002;DHT22;22913;51.910;8.374;2023-03-19T08:06:28;11.90;99.90
37002;DHT22;22913;51.910;8.374;2023-03-19T08:09:15;12.00;99.90
37002;DHT22;22913;51.910;8.374;2023-03-19T08:12:01;12.00;99.90
37002;DHT22;22913;51.910;8.374;2023-03-19T08:14:47;12.10;99.90
37002;DHT22;22913;51.910;8.374;2023-03-19T08:17:33;12.20;99.90
37002;DHT22;22913;51.910;8.374;2023-03-19T08:20:21;12.30;99.90
37002;DHT22;22913;51.910;8.374;2023-03-19T08:23:07;12.50;99.90
37002;DHT22;22913;51.910;8.374;2023-03-19T08:25:55;12.50;99.90
37002;DHT22;22913;51.910;8.374;2023-03-19T08:28:41;12.60;99.90
37002;DHT22;22913;51.910;8.374;2023-03-19T08:31:26;12.50;99.90
37002;DHT22;22913;51.910;8.374;2023-03-19T08:34:12;12.60;99.90
37002;DHT22;22913;51.910;8.374;2023-03-19T08:36:58;12.60;99.90
37002;DHT22;22913;51.910;8.374;2023-03-19T08:39:44;12.60;99.90
37002;DHT22;22913;51.910;8.374;2023-03-19T08:42:31;12.80;99.90
37002;DHT22;22913;51.910;8.374;2023-03-19T08:45:18;12.80;99.90
37002;DHT22;22913;51.910;8.374;2023-03-19T08:48:04;12.80;99.90
37002;DHT22;22913;51.910;8.374;2023-03-19T08:50:52;12.90;99.90
37002;DHT22;22913;51.910;8.374;2023-03-19T08:53:38;13.00;99.90
37002;DHT22;22913;51.910;8.374;2023-03-19T08:56:24;12.90;99.90
37002;DHT22;22913;51.910;8.374;2023-03-19T08:59:11;13.00;99.90
37002;DHT22;22913;51.910;8.374;2023-03-19T09:02:00;13.10;99.90
37002;DHT22;22913;51.910;8.374;2023-03-19T09:04:46;13.10;99.90
37002;DHT22;22913;51.910;8.374;2023-03-19T09:07:32;13.20;99.90
37002;DHT22;22913;51.910;8.374;2023-03-19T09:10:18;13.30;99.90
37002;DHT22;22913;51.910;8.374;2023-03-19T09:13:05;13.50;99.90
37002;DHT22;22913;51.910;8.374;2023-03-19T09:15:52;13.70;99.90
37002;DHT22;22913;51.910;8.374;2023-03-19T09:18:38;13.90;99.90
37002;DHT22;22913;51.910;8.374;2023-03-19T09:21:24;14.10;99.90
37002;DHT22;22913;51.910;8.374;2023-03-19T09:24:10;14.20;99.90
37002;DHT22;22913;51.910;8.374;2023-03-19T09:26:56;14.20;99.90
37002;DHT22;22913;51.910;8.374;2023-03-19T09:29:42;14.20;99.90
37002;DHT22;22913;51.910;8.374;2023-03-19T09:32:30;14.30;99.90
37002;DHT22;22913;51.910;8.374;2023-03-19T09:35:16;14.30;99.90
37002;DHT22;22913;51.910;8.374;2023-03-19T09:38:02;14.20;99.90
37002;DHT22;22913;51.910;8.374;2023-03-19T09:40:51;14.20;99.90
37002;DHT22;22913;51.910;8.374;2023-03-19T09:43:48;14.10;99.90
37002;DHT22;22913;51.910;8.374;2023-03-19T09:46:43;14.10;99.90
37002;DHT22;22913;51.910;8.374;2023-03-19T09:49:35;14.10;99.90
37002;DHT22;22913;51.910;8.374;2023-03-19T09:52:29;14.20;99.90
37002;DHT22;22913;51.910;8.374;2023-03-19T09:55:30;14.20;99.90
37002;DHT22;22913;51.910;8.374;2023-03-19T09:58:20;14.30;99.90
37002;DHT22;22913;51.910;8.374;2023-03-19T10:01:06;14.40;99.90
37002;DHT22;22913;51.910;8.374;2023-03-19T10:04:12;14.60;99.90
37002;DHT22;22913;51.910;8.374;2023-03-19T10:07:10;14.60;99.90
37002;DHT22;22913;51.910;8.374;2023-03-19T10:10:24;14.70;99.90
37002;DHT22;22913;51.910;8.374;2023-03-19T10:13:23;14.90;99.90
37002;DHT22;22913;51.910;8.374;2023-03-19T10:16:13;15.10;99.90
37002;DHT22;22913;51.910;8.374;2023-03-19T10:19:03;15.10;99.90
37002;DHT22;22913;51.910;8.374;2023-03-19T10:21:51;15.40;99.90
37002;DHT22;22913;51.910;8.374;2023-03-19T10:24:43;15.40;99.90
37002;DHT22;22913;51.910;8.374;2023-03-19T10:27:30;15.40;99.90
37002;DHT22;22913;51.910;8.374;2023-03-19T10:30:16;15.20;99.90
37002;DHT22;22913;51.910;8.374;2023-03-19T10:33:12;15.10;99.90
37002;DHT22;22913;51.910;8.374;2023-03-19T10:36:04;15.00;99.90
37002;DHT22;22913;51.910;8.374;2023-03-19T10:38:51;15.00;99.90
37002;DHT22;22913;51.910;8.374;2023-03-19T10:41:46;15.10;99.90
37002;DHT22;22913;51.910;8.374;2023-03-19T10:44:37;15.30;99.90
37002;DHT22;22913;51.910;8.374;2023-03-19T10:47:25;15.40;99.90
37002;DHT22;22913;51.910;8.374;2023-03-19T10:50:15;15.30;99.90
37002;DHT22;22913;51.910;8.374;2023-03-19T10:53:05;15.50;99.90
37002;DHT22;22913;51.910;8.374;2023-03-19T10:55:54;15.40;99.90
37002;DHT22;22913;51.910;8.374;2023-03-19T10:58:56;15.30;99.90
37002;DHT22;22913;51.910;8.374;2023-03-19T11:01:42;15.40;99.90
37002;DHT22;22913;51.910;8.374;2023-03-19T11:04:27;15.50;99.90
37002;DHT22;22913;51.910;8.374;2023-03-19T11:07:18;15.50;99.90
37002;DHT22;22913;51.910;8.374;2023-03-19T11:10:11;15.50;99.90
37002;DHT22;22913;51.910;8.374;2023-03-19T11:12:59;15.40;99.90
37002;DHT22;22913;51.910;8.374;2023-03-19T11:15:47;15.40;99.90
37002;DHT22;22913;51.910;8.374;2023-03-19T11:18:36;15.50;99.90
37002;DHT22;22913;51.910;8.374;2023-03-19T11:21:27;15.50;99.90
37002;DHT22;22913;51.910;8.374;2023-03-19T11:24:15;15.60;99.90
37002;DHT22;22913;51.910;8.374;2023-03-19T11:27:02;15.60;99.90
37002;DHT22;22913;51.910;8.374;2023-03-19T11:29:48;15.90;99.90
37002;DHT22;22913;51.910;8.374;2023-03-19T11:32:54;16.20;99.90
37002;DHT22;22913;51.910;8.374;2023-03-19T11:35:45;16.30;99.90
37002;DHT22;22913;51.910;8.374;2023-03-19T11:38:40;16.20;99.90
37002;DHT22;22913;51.910;8.374;2023-03-19T11:41:43;16.00;99.90
37002;DHT22;22913;51.910;8.374;2023-03-19T11:44:34;15.90;99.90
37002;DHT22;22913;51.910;8.374;2023-03-19T11:47:27;15.70;99.90
37002;DHT22;22913;51.910;8.374;2023-03-19T11:50:24;15.80;99.90
37002;DHT22;22913;51.910;8.374;2023-03-19T11:53:19;15.70;99.90
37002;DHT22;22913;51.910;8.374;2023-03-19T11:56:13;15.50;99.90
37002;DHT22;22913;51.910;8.374;2023-03-19T11:59:15;15.60;99.90
37002;DHT22;22913;51.910;8.374;2023-03-19T12:02:30;15.50;99.90
37002;DHT22;22913;51.910;8.374;2023-03-19T12:05:28;15.50;99.90
37002;DHT22;22913;51.910;8.374;2023-03-19T12:08:32;15.40;99.90
37002;DHT22;22913;51.910;8.374;2023-03-19T12:11:23;15.40;99.90
37002;DHT22;22913;51.910;8.374;2023-03-19T12:14:25;15.50;99.90
37002;DHT22;22913;51.910;8.374;2023-03-19T12:17:33;15.50;99.90
37002;DHT22;22913;51.910;8.374;2023-03-19T12:20:31;15.60;99.90
37002;DHT22;22913;51.910;8.374;2023-03-19T12:23:30;15.50;99.90
37002;DHT22;22913;51.910;8.374;2023-03-19T12:26:25;15.50;99.90
37002;DHT22;22913;51.910;8.374;2023-03-19T12:29:19;15.50;99.90
37002;DHT22;22913;51.910;8.374;2023-03-19T12:32:15;15.60;99.90
37002;DHT22;22913;51.910;8.374;2023-03-19T12:35:09;15.60;99.90
37002;DHT22;22913;51.910;8.374;2023-03-19T12:38:00;15.70;99.90
37002;DHT22;22913;51.910;8.374;2023-03-19T12:40:51;15.80;99.90
37002;DHT22;22913;51.910;8.374;2023-03-19T12:43:45;15.80;99.90
37002;DHT22;22913;51.910;8.374;2023-03-19T12:46:36;16.10;99.90
37002;DHT22;22913;51.910;8.374;2023-03-19T12:49:25;16.80;99.90
37002;DHT22;22913;51.910;8.374;2023-03-19T12:52:19;18.10;99.90
37002;DHT22;22913;51.910;8.374;2023-03-19T12:55:14;19.50;99.90
37002;DHT22;22913;51.910;8.374;2023-03-19T12:58:03;20.90;99.90
37002;DHT22;22913;51.910;8.374;2023-03-19T13:00:54;21.60;99.90
37002;DHT22;22913;51.910;8.374;2023-03-19T13:03:49;21.40;99.90
37002;DHT22;22913;51.910;8.374;2023-03-19T13:06:43;20.60;99.90
37002;DHT22;22913;51.910;8.374;2023-03-19T13:09:35;20.80;99.90
37002;DHT22;22913;51.910;8.374;2023-03-19T13:12:26;20.80;99.90
37002;DHT22;22913;51.910;8.374;2023-03-19T13:15:18;20.60;99.90
37002;DHT22;22913;51.910;8.374;2023-03-19T13:18:15;20.50;99.90
37002;DHT22;22913;51.910;8.374;2023-03-19T13:21:15;20.30;99.90
37002;DHT22;22913;51.910;8.374;2023-03-19T13:24:08;20.20;99.90
37002;DHT22;22913;51.910;8.374;2023-03-19T13:26:59;20.10;99.90
37002;DHT22;22913;51.910;8.374;2023-03-19T13:29:57;19.70;99.90
37002;DHT22;22913;51.910;8.374;2023-03-19T13:32:47;19.60;99.90
37002;DHT22;22913;51.910;8.374;2023-03-19T13:35:38;19.60;99.90
37002;DHT22;22913;51.910;8.374;2023-03-19T13:38:26;19.40;99.90
37002;DHT22;22913;51.910;8.374;2023-03-19T13:41:51;19.00;99.90
37002;DHT22;22913;51.910;8.374;2023-03-19T13:44:41;18.80;99.90
37002;DHT22;22913;51.910;8.374;2023-03-19T13:47:39;18.80;99.90
37002;DHT22;22913;51.910;8.374;2023-03-19T13:50:27;18.80;99.90
37002;DHT22;22913;51.910;8.374;2023-03-19T13:53:31;18.80;99.90
37002;DHT22;22913;51.910;8.374;2023-03-19T13:56:17;18.50;99.90
37002;DHT22;22913;51.910;8.374;2023-03-19T13:59:22;18.20;99.90
37002;DHT22;22913;51.910;8.374;2023-03-19T14:05:32;17.60;99.90
37002;DHT22;22913;51.910;8.374;2023-03-19T14:08:20;17.60;99.90
37002;DHT22;22913;51.910;8.374;2023-03-19T14:11:06;17.70;99.90
37002;DHT22;22913;51.910;8.374;2023-03-19T14:13:52;17.60;99.90
37002;DHT22;22913;51.910;8.374;2023-03-19T14:16:41;17.60;99.90
37002;DHT22;22913;51.910;8.374;2023-03-19T14:19:29;17.70;99.90
37002;DHT22;22913;51.910;8.374;2023-03-19T14:22:20;17.40;99.90
37002;DHT22;22913;51.910;8.374;2023-03-19T14:25:17;17.50;99.90
37002;DHT22;22913;51.910;8.374;2023-03-19T14:28:09;17.30;99.90
37002;DHT22;22913;51.910;8.374;2023-03-19T14:30:55;17.50;99.90
37002;DHT22;22913;51.910;8.374;2023-03-19T14:33:44;17.60;99.90
37002;DHT22;22913;51.910;8.374;2023-03-19T14:36:34;17.80;99.90
37002;DHT22;22913;51.910;8.374;2023-03-19T14:39:23;17.80;99.90
37002;DHT22;22913;51.910;8.374;2023-03-19T14:42:17;18.00;99.90
37002;DHT22;22913;51.910;8.374;2023-03-19T14:45:24;18.00;99.90
37002;DHT22;22913;51.910;8.374;2023-03-19T14:48:49;17.80;99.90
37002;DHT22;22913;51.910;8.374;2023-03-19T14:51:52;17.70;99.90
37002;DHT22;22913;51.910;8.374;2023-03-19T14:54:41;17.30;99.90
37002;DHT22;22913;51.910;8.374;2023-03-19T14:57:30;17.10;99.90
37002;DHT22;22913;51.910;8.374;2023-03-19T15:00:18;17.00;99.90
37002;DHT22;22913;51.910;8.374;2023-03-19T15:03:17;16.90;99.90
37002;DHT22;22913;51.910;8.374;2023-03-19T15:06:05;17.10;99.90
37002;DHT22;22913;51.910;8.374;2023-03-19T15:08:51;17.00;99.90
37002;DHT22;22913;51.910;8.374;2023-03-19T15:11:50;16.90;99.90
37002;DHT22;22913;51.910;8.374;2023-03-19T15:18:03;16.80;99.90
37002;DHT22;22913;51.910;8.374;2023-03-19T15:20:52;16.70;99.90
37002;DHT22;22913;51.910;8.374;2023-03-19T15:23:39;16.60;99.90
37002;DHT22;22913;51.910;8.374;2023-03-19T15:26:30;16.50;99.90
37002;DHT22;22913;51.910;8.374;2023-03-19T15:29:29;16.40;99.90
37002;DHT22;22913;51.910;8.374;2023-03-19T15:32:30;16.30;99.90
37002;DHT22;22913;51.910;8.374;2023-03-19T15:35:16;16.10;99.90
37002;DHT22;22913;51.910;8.374;2023-03-19T15:38:02;15.90;99.90
37002;DHT22;22913;51.910;8.374;2023-03-19T15:40:52;15.90;99.90
37002;DHT22;22913;51.910;8.374;2023-03-19T15:43:39;15.70;99.90
37002;DHT22;22913;51.910;8.374;2023-03-19T15:46:30;15.70;99.90
37002;DHT22;22913;51.910;8.374;2023-03-19T15:49:21;15.50;99.90
37002;DHT22;22913;51.910;8.374;2023-03-19T15:52:10;15.40;99.90
37002;DHT22;22913;51.910;8.374;2023-03-19T15:54:59;15.40;99.90
37002;DHT22;22913;51.910;8.374;2023-03-19T15:57:45;15.30;99.90
37002;DHT22;22913;51.910;8.374;2023-03-19T16:00:33;15.20;99.90
37002;DHT22;22913;51.910;8.374;2023-03-19T16:03:24;15.20;99.90
37002;DHT22;22913;51.910;8.374;2023-03-19T16:06:20;15.10;99.90
37002;DHT22;22913;51.910;8.374;2023-03-19T16:09:16;15.10;99.90
37002;DHT22;22913;51.910;8.374;2023-03-19T16:12:32;15.10;99.90
37002;DHT22;22913;51.910;8.374;2023-03-19T16:15:26;14.90;99.90
37002;DHT22;22913;51.910;8.374;2023-03-19T16:18:28;14.90;99.90
37002;DHT22;22913;51.910;8.374;2023-03-19T16:21:16;14.80;99.90
37002;DHT22;22913;51.910;8.374;2023-03-19T16:24:08;14.90;99.90
37002;DHT22;22913;51.910;8.374;2023-03-19T16:26:57;14.90;99.90
37002;DHT22;22913;51.910;8.374;2023-03-19T16:29:45;14.90;99.90
37002;DHT22;22913;51.910;8.374;2023-03-19T16:32:31;14.90;99.90
37002;DHT22;22913;51.910;8.374;2023-03-19T16:35:19;14.90;99.90
37002;DHT22;22913;51.910;8.374;2023-03-19T16:38:09;15.00;99.90
37002;DHT22;22913;51.910;8.374;2023-03-19T16:41:24;15.00;99.90
37002;DHT22;22913;51.910;8.374;2023-03-19T16:44:14;14.90;99.90
37002;DHT22;22913;51.910;8.374;2023-03-19T16:47:00;14.80;99.90
37002;DHT22;22913;51.910;8.374;2023-03-19T16:49:46;14.90;99.90
37002;DHT22;22913;51.910;8.374;2023-03-19T16:52:34;15.00;99.90
37002;DHT22;22913;51.910;8.374;2023-03-19T16:55:22;15.00;99.90
37002;DHT22;22913;51.910;8.374;2023-03-19T16:58:12;15.10;99.90
37002;DHT22;22913;51.910;8.374;2023-03-19T17:00:58;15.10;99.90
37002;DHT22;22913;51.910;8.374;2023-03-19T17:03:44;15.10;99.90
37002;DHT22;22913;51.910;8.374;2023-03-19T17:06:30;15.10;99.90
37002;DHT22;22913;51.910;8.374;2023-03-19T17:09:18;15.10;99.90
37002;DHT22;22913;51.910;8.374;2023-03-19T17:12:06;15.00;99.90
37002;DHT22;22913;51.910;8.374;2023-03-19T17:14:52;15.10;99.90
37002;DHT22;22913;51.910;8.374;2023-03-19T17:17:38;15.00;99.90
37002;DHT22;22913;51.910;8.374;2023-03-19T17:20:27;15.00;99.90
37002;DHT22;22913;51.910;8.374;2023-03-19T17:23:14;15.00;99.90
37002;DHT22;22913;51.910;8.374;2023-03-19T17:26:04;15.00;99.90
37002;DHT22;22913;51.910;8.374;2023-03-19T17:28:49;15.00;99.90
37002;DHT22;22913;51.910;8.374;2023-03-19T17:31:36;15.00;99.90
37002;DHT22;22913;51.910;8.374;2023-03-19T17:34:24;14.90;99.90
37002;DHT22;22913;51.910;8.374;2023-03-19T17:37:12;14.90;99.90
37002;DHT22;22913;51.910;8.374;2023-03-19T17:39:57;14.80;99.90
37002;DHT22;22913;51.910;8.374;2023-03-19T17:42:44;14.80;99.90
37002;DHT22;22913;51.910;8.374;2023-03-19T17:45:30;14.80;99.90
37002;DHT22;22913;51.910;8.374;2023-03-19T17:48:18;14.80;99.90
37002;DHT22;22913;51.910;8.374;2023-03-19T17:51:05;14.80;99.90
37002;DHT22;22913;51.910;8.374;2023-03-19T17:53:53;14.80;99.90
37002;DHT22;22913;51.910;8.374;2023-03-19T17:56:38;14.80;99.90